28 maggio 2022

Tempo Codice Tempo metereologico Temp. Vista Base nuvolosa Vento METAR/SPECI
4:55 am
V
48 °F 6¼ mi+ - 260° 260° 5 kt METAR EHDL 280255Z AUTO 26005KT 240V340 9999 NCD 09/07 Q1020 BLU
4:25 am
V
48 °F 6¼ mi+ - 270° 270° 5 kt METAR EHDL 280225Z AUTO 27005KT 230V340 9999 NCD 09/07 Q1020 BLU
3:55 am
V
48 °F 6¼ mi+ - 260° 260° 6 kt METAR EHDL 280155Z AUTO 26006KT 220V320 9999 NCD 09/07 Q1020 BLU
3:25 am
V
46 °F 6¼ mi+ - 240° 240° 7 kt METAR EHDL 280125Z AUTO 24007KT 190V300 9999 NCD 08/07 Q1020 BLU
2:55 am
V
46 °F 6¼ mi+ - 250° 250° 5 kt METAR EHDL 280055Z AUTO 25005KT 200V300 9999 NCD 08/06 Q1020 BLU
2:25 am
V
48 °F 6¼ mi+ - 250° 250° 6 kt METAR EHDL 280025Z AUTO 25006KT 220V310 9999 NCD 09/06 Q1021 BLU RMK CB INFO NOT AVBL
1:55 am
V
50 °F 6¼ mi+ - 260° 260° 6 kt METAR EHDL 272355Z AUTO 26006KT 200V330 9999 NCD 10/07 Q1021 BLU
1:25 am
V
50 °F 6¼ mi+ - 250° 250° 7 kt METAR EHDL 272325Z AUTO 25007KT 190V330 9999 SCT076 10/07 Q1021 BLU
12:55 am
V
52 °F 6¼ mi+ - 260° 260° 7 kt METAR EHDL 272255Z AUTO 26007KT 230V340 9999 SCT043 11/07 Q1021 BLU
12:25 am
V
50 °F 6¼ mi+ 6.900 ft 240° 240° 6 kt METAR EHDL 272225Z AUTO 24006KT 200V300 9999 FEW023 BKN069 OVC074 10/07 Q1021 BLU

27 maggio 2022

Tempo Codice Tempo metereologico Temp. Vista Base nuvolosa Vento METAR/SPECI
11:55 pm
V
48 °F 6¼ mi+ 7.500 ft 230° 230° 5 kt METAR EHDL 272155Z AUTO 23005KT 170V280 9999 OVC075 09/07 Q1022 BLU
11:25 pm
V
50 °F 6¼ mi+ 7.100 ft 260° 260° 6 kt METAR EHDL 272125Z AUTO 26006KT 200V310 9999 FEW045 SCT063 BKN071 10/06 Q1022 BLU
10:55 pm
V
50 °F 6¼ mi+ - 260° 260° 6 kt METAR EHDL 272055Z AUTO 26006KT 190V310 9999 FEW055 10/06 Q1022 BLU
10:25 pm
V
50 °F 6¼ mi+ 3.700 ft 250° 250° 4 kt METAR EHDL 272025Z AUTO 25004KT 180V260 9999 BKN037 BKN045 BKN060 10/06 Q1022 BLU
9:55 pm
V
52 °F 6¼ mi+ 5.200 ft 250° 250° 4 kt METAR EHDL 271955Z AUTO 25004KT 230V310 9999 FEW042 SCT048 BKN052 11/06 Q1022 BLU
9:25 pm
V
55 °F 6¼ mi+ - 280° 280° 5 kt METAR EHDL 271925Z AUTO 28005KT 230V360 9999 FEW038 SCT042 13/06 Q1022 BLU
8:55 pm
V
55 °F 6¼ mi+ - 290° 290° 7 kt METAR EHDL 271855Z AUTO 29007KT 250V020 9999 SCT038 13/05 Q1022 BLU
8:25 pm
V
57 °F 6¼ mi+ - 300° 300° 12 kt METAR EHDL 271825Z AUTO 30012KT 230V350 9999 NCD 14/05 Q1022 BLU
7:55 pm
V
57 °F 6¼ mi+ - 300° 300° 13 kt METAR EHDL 271755Z AUTO 30013KT 240V360 9999 FEW056 14/05 Q1022 BLU
7:25 pm
V
57 °F 6¼ mi+ 5.400 ft 300° 300° 12 kt METAR EHDL 271725Z AUTO 30012KT 230V350 9999 SCT049 BKN054 14/05 Q1022 BLU
6:55 pm
V
57 °F 6¼ mi+ 5.100 ft 300° 300° 12 kt METAR EHDL 271655Z AUTO 30012KT 220V010 9999 FEW045 OVC051 14/05 Q1022 BLU
6:25 pm
V
59 °F 6¼ mi+ 5.200 ft 300° 300° 13 kt METAR EHDL 271625Z AUTO 30013KT 230V010 9999 FEW042 SCT048 BKN052 15/06 Q1022 BLU
5:55 pm
V
59 °F 6¼ mi+ - 300° 300° 14 - 24 kt METAR EHDL 271555Z AUTO 30014G24KT 220V360 9999 FEW040 SCT049 15/05 Q1022 BLU
5:25 pm
V
57 °F 6¼ mi+ 3.600 ft 310° 310° 11 kt METAR EHDL 271525Z AUTO 31011KT 250V010 9999 BKN036 OVC041 14/05 Q1022 BLU
4:55 pm
V
61 °F 6¼ mi+ 4.400 ft 280° 280° 16 kt METAR EHDL 271455Z AUTO 28016KT 210V020 9999 SCT039 BKN044 OVC049 16/06 Q1022 BLU
4:25 pm
V
59 °F 6¼ mi+ 4.100 ft 270° 270° 16 kt METAR EHDL 271425Z AUTO 27016KT 230V020 9999 BKN041 BKN051 15/05 Q1021 BLU
3:55 pm
V
59 °F 6¼ mi+ 4.100 ft 270° 270° 16 kt METAR EHDL 271355Z AUTO 27016KT 220V010 9999 BKN041 BKN047 BKN056 15/05 Q1021 BLU
3:25 pm
V
61 °F 6¼ mi+ 4.300 ft 280° 280° 14 kt METAR EHDL 271325Z AUTO 28014KT 220V360 9999 OVC043 16/05 Q1021 BLU
2:55 pm
V
61 °F 6¼ mi+ 4.500 ft 290° 290° 15 - 25 kt METAR EHDL 271255Z AUTO 29015G25KT 230V360 9999 BKN045 BKN050 16/05 Q1021 BLU
2:25 pm
V
63 °F 6¼ mi+ 4.300 ft 290° 290° 16 kt METAR EHDL 271225Z AUTO 29016KT 210V330 9999 BKN043 BKN053 17/04 Q1021 BLU
1:55 pm
V
61 °F 6¼ mi+ 5.300 ft 280° 280° 14 kt METAR EHDL 271155Z AUTO 28014KT 200V350 9999 SCT047 BKN053 16/03 Q1021 BLU
1:25 pm
V
61 °F 6¼ mi+ 4.300 ft 270° 270° 15 kt METAR EHDL 271125Z AUTO 27015KT 210V350 9999 BKN043 BKN047 16/04 Q1020 BLU
12:55 pm
V
63 °F 6¼ mi+ - 270° 270° 15 kt METAR EHDL 271055Z AUTO 27015KT 210V350 9999 SCT047 17/05 Q1020 BLU
12:25 pm
V
61 °F 6¼ mi+ - 270° 270° 17 kt METAR EHDL 271025Z AUTO 27017KT 210V360 9999 SCT043 SCT048 16/04 Q1020 BLU
11:55 am
V
61 °F 6¼ mi+ - 290° 290° 16 kt METAR EHDL 270955Z AUTO 29016KT 210V360 9999 FEW043 SCT370 16/06 Q1020 BLU
11:25 am
V
61 °F 6¼ mi+ 37.000 ft 290° 290° 16 kt METAR EHDL 270925Z AUTO 29016KT 230V360 9999 FEW050 BKN370 16/06 Q1020 BLU
10:55 am
V
61 °F 6¼ mi+ - 300° 300° 16 kt METAR EHDL 270855Z AUTO 30016KT 190V350 9999 FEW032 16/08 Q1020 BLU
10:25 am
V
59 °F 6¼ mi+ 4.100 ft 300° 300° 12 kt METAR EHDL 270825Z AUTO 30012KT 240V360 9999 SCT037 BKN041 BKN056 15/07 Q1020 BLU
9:55 am
V
57 °F 6¼ mi+ 4.400 ft 300° 300° 10 kt METAR EHDL 270755Z AUTO 30010KT 230V360 9999 FEW031 SCT036 BKN044 14/07 Q1020 BLU
9:25 am
V
57 °F 6¼ mi+ 3.400 ft 300° 300° 10 kt METAR EHDL 270725Z AUTO 30010KT 240V020 9999 FEW029 BKN034 OVC038 14/06 Q1020 BLU
8:55 am
V
57 °F 6¼ mi+ 5.700 ft 290° 290° 12 kt METAR EHDL 270655Z AUTO 29012KT 250V010 9999 FEW021 SCT024 BKN057 14/08 Q1019 WHT
8:25 am
V
57 °F 6¼ mi+ 5.400 ft 280° 280° 9 kt METAR EHDL 270625Z AUTO 28009KT 200V340 9999 OVC054 14/12 Q1019 BLU
7:55 am
V
57 °F 6¼ mi+ 5.900 ft 270° 270° 7 kt METAR EHDL 270555Z AUTO 27007KT 210V350 9999 BKN059 14/12 Q1019 BLU
7:25 am
V
55 °F 6¼ mi+ 36.000 ft 270° 270° 6 kt METAR EHDL 270525Z AUTO 27006KT 210V020 9999 SCT060 BKN360 13/11 Q1019 BLU
6:55 am
V
54 °F 6¼ mi+ - 250° 250° 5 kt METAR EHDL 270455Z AUTO 25005KT 210V320 9999 FEW061 SCT350 12/11 Q1019 BLU
6:25 am
V
54 °F 6¼ mi+ 32.000 ft 250° 250° 6 kt METAR EHDL 270425Z AUTO 25006KT 190V300 9999 SCT047 OVC320 12/11 Q1019 BLU
5:55 am
V
54 °F 6¼ mi+ 31.000 ft 250° 250° 5 kt METAR EHDL 270355Z AUTO 25005KT 210V310 9999 OVC310 12/11 Q1019 BLU
5:25 am
V
54 °F 6¼ mi+ 5.900 ft 250° 250° 5 kt METAR EHDL 270325Z AUTO 25005KT 200V290 9999 OVC059 12/11 Q1018 BLU
4:55 am
V
54 °F 6¼ mi+ 5.800 ft 260° 260° 5 kt METAR EHDL 270255Z AUTO 26005KT 220V310 9999 BKN058 OVC320 12/11 Q1019 BLU
4:25 am
V
55 °F 6¼ mi+ 8.600 ft 260° 260° 5 kt METAR EHDL 270225Z AUTO 26005KT 220V320 9999 BKN086 OVC091 13/12 Q1018 BLU
3:55 am
V
55 °F 6¼ mi+ 4.400 ft 260° 260° 6 kt METAR EHDL 270155Z AUTO 26006KT 230V320 9999 OVC044 13/12 Q1018 BLU
3:25 am
V
55 °F 6¼ mi+ 3.000 ft 270° 270° 7 kt METAR EHDL 270125Z AUTO 27007KT 200V320 9999 DZ FEW008 FEW015CB SCT021 BKN030 13/12 Q1019 WHT
2:55 am
M
55 °F 3⅛ mi 2.400 ft 290° 290° 10 kt METAR EHDL 270055Z AUTO 29010KT 240V020 5000 -SHRA FEW008 FEW015CB BKN024 BKN030 13/12 Q1019 RERA REDZ WHT
2:25 am
M
57 °F 4⅜ mi 1.400 ft 240° 240° 11 kt METAR EHDL 270025Z AUTO 24011KT 150V310 7000 DZ FEW007 BKN014 FEW015CB OVC016 14/13 Q1018 GRN
1:55 am
M
57 °F 6¼ mi+ 1.600 ft 240° 240° 15 kt METAR EHDL 262355Z AUTO 24015KT 170V280 9999 -DZ BKN016 OVC019 14/12 Q1018 WHT
1:25 am
M
59 °F 6¼ mi+ 1.600 ft 240° 240° 14 kt METAR EHDL 262325Z AUTO 24014KT 150V290 9999 BKN016 OVC022 15/12 Q1019 WHT
12:55 am
M
59 °F 6¼ mi+ 1.600 ft 230° 230° 14 kt METAR EHDL 262255Z AUTO 23014KT 180V350 9999 BKN016 OVC020 15/11 Q1019 WHT
12:25 am
M
59 °F 6¼ mi+ 1.700 ft 240° 240° 14 kt METAR EHDL 262225Z AUTO 24014KT 170V300 9999 BKN017 OVC021 15/11 Q1019 WHT

26 maggio 2022

Tempo Codice Tempo metereologico Temp. Vista Base nuvolosa Vento METAR/SPECI
11:55 pm
M
59 °F 6¼ mi+ 1.800 ft 240° 240° 13 kt METAR EHDL 262155Z AUTO 24013KT 150V290 9999 BKN018 BKN022 BKN034 15/11 Q1019 WHT
11:25 pm
V
59 °F 6¼ mi+ 3.400 ft 240° 240° 13 kt METAR EHDL 262125Z AUTO 24013KT 180V290 9999 FEW018 BKN034 OVC038 15/11 Q1019 BLU
10:55 pm
V
61 °F 6¼ mi+ 3.100 ft 240° 240° 14 kt METAR EHDL 262055Z AUTO 24014KT 160V290 9999 FEW020/// BKN031/// BKN037/// 16/11 Q1019 BLU RMK TS INFO NOT AVBL
10:25 pm
M
61 °F 6¼ mi+ 2.200 ft 240° 240° 14 kt METAR EHDL 262025Z AUTO 24014KT 180V280 9999 FEW018/// BKN022/// BKN027/// 16/11 Q1019 WHT RMK TS INFO NOT AVBL
9:55 pm
V
61 °F 6¼ mi+ 3.700 ft 240° 240° 11 kt METAR EHDL 261955Z AUTO 24011KT 190V300 9999 FEW021/// SCT025/// BKN037/// 16/12 Q1019 BLU RMK TS INFO NOT AVBL
9:25 pm
V
61 °F 6¼ mi+ 4.400 ft 250° 250° 13 kt METAR EHDL 261925Z AUTO 25013KT 180V310 9999 FEW038/// BKN044/// OVC049/// 16/12 Q1019 BLU RMK TS INFO NOT AVBL
8:55 pm
V
63 °F 6¼ mi+ 4.600 ft 250° 250° 12 kt METAR EHDL 261855Z AUTO 25012KT 180V310 9999 OVC046/// 17/12 Q1019 BLU RMK TS INFO NOT AVBL
8:25 pm
V
63 °F 6¼ mi+ 4.100 ft 250° 250° 13 - 23 kt METAR EHDL 261825Z AUTO 25013G23KT 190V330 9999 SCT037/// OVC041/// 17/12 Q1019 BLU RMK TS INFO NOT AVBL
7:55 pm
M
63 °F 6¼ mi+ 2.400 ft 260° 260° 13 kt METAR EHDL 261755Z AUTO 26013KT 200V320 9999 BKN024/// OVC028/// 17/11 Q1019 WHT RMK TS INFO NOT AVBL
7:25 pm
M
64 °F 6¼ mi+ 2.700 ft 260° 260° 10 kt METAR EHDL 261725Z AUTO 26010KT 190V330 9999 BKN027/// OVC033/// 18/11 Q1019 BLU RMK TS INFO NOT AVBL
6:55 pm
V
64 °F 6¼ mi+ 3.700 ft 260° 260° 15 kt METAR EHDL 261655Z AUTO 26015KT 200V320 9999 FEW031/// BKN037/// OVC046/// 18/10 Q1019 BLU RMK TS INFO NOT AVBL
6:25 pm
V
64 °F 6¼ mi+ 5.200 ft 250° 250° 15 kt METAR EHDL 261625Z AUTO 25015KT 170V330 9999 FEW034/// SCT039/// BKN052/// 18/10 Q1019 BLU RMK TS INFO NOT AVBL
5:55 pm
V
64 °F 6¼ mi+ 3.500 ft 240° 240° 15 kt METAR EHDL 261555Z AUTO 24015KT 170V310 9999 SCT030/// BKN035/// BKN040/// 18/11 Q1019 BLU RMK TS INFO NOT AVBL
5:25 pm
V
64 °F 6¼ mi+ 7.100 ft 250° 250° 14 - 24 kt METAR EHDL 261525Z AUTO 25014G24KT 140V310 9999 FEW034/// BKN071/// BKN078/// 18/11 Q1019 BLU RMK TS INFO NOT AVBL
4:55 pm
V
64 °F 6¼ mi+ 7.100 ft 250° 250° 15 kt METAR EHDL 261455Z AUTO 25015KT 200V300 9999 SCT035/// SCT040/// OVC071/// 18/10 Q1019 BLU RMK TS INFO NOT AVBL
4:25 pm
V
66 °F 6¼ mi+ 4.100 ft 250° 250° 15 kt METAR EHDL 261425Z AUTO 25015KT 180V310 9999 SCT035/// BKN041/// OVC070/// 19/10 Q1020 BLU RMK TS INFO NOT AVBL
3:55 pm
V
66 °F 6¼ mi+ 4.200 ft 240° 240° 17 kt METAR EHDL 261355Z AUTO 24017KT 180V310 9999 SCT038/// BKN042/// OVC075/// 19/10 Q1020 BLU RMK TS INFO NOT AVBL
3:25 pm
V
66 °F 6¼ mi+ 4.400 ft 250° 250° 16 kt METAR EHDL 261325Z AUTO 25016KT 150V310 9999 FEW038/// BKN044/// OVC077/// 19/10 Q1020 BLU RMK TS INFO NOT AVBL
2:55 pm
V
66 °F 6¼ mi+ 3.700 ft 250° 250° 14 kt METAR EHDL 261255Z AUTO 25014KT 180V310 9999 BKN037/// BKN047/// BKN053/// 19/10 Q1020 BLU RMK TS INFO NOT AVBL
2:25 pm
V
66 °F 6¼ mi+ - 250° 250° 17 - 28 kt METAR EHDL 261225Z AUTO 25017G28KT 180V300 9999 SCT037/// SCT046/// 19/10 Q1020 BLU RMK TS INFO NOT AVBL
1:55 pm
V
66 °F 6¼ mi+ 4.000 ft 250° 250° 15 kt METAR EHDL 261155Z AUTO 25015KT 180V300 9999 SCT036 BKN040 BKN049 19/10 Q1020 BLU
1:25 pm
V
66 °F 6¼ mi+ 3.200 ft 250° 250° 14 kt METAR EHDL 261125Z AUTO 25014KT 180V310 9999 BKN032 BKN037 BKN049 19/10 Q1020 BLU
12:55 pm
V
64 °F 6¼ mi+ 3.300 ft 240° 240° 12 kt METAR EHDL 261055Z AUTO 24012KT 180V300 9999 BKN033 BKN037 BKN043 18/10 Q1020 BLU
12:25 pm
V
63 °F 6¼ mi+ 5.400 ft 250° 250° 11 - 21 kt METAR EHDL 261025Z AUTO 25011G21KT 190V290 9999 SCT031 SCT040 BKN054 17/10 Q1020 BLU
11:55 am
V
64 °F 6¼ mi+ 3.800 ft 240° 240° 12 kt METAR EHDL 260955Z AUTO 24012KT 160V290 9999 FEW028 SCT032 BKN038 18/11 Q1020 BLU
11:25 am
V
64 °F 6¼ mi+ 3.200 ft 240° 240° 14 kt METAR EHDL 260925Z AUTO 24014KT 170V300 9999 SCT028 BKN032 BKN038 18/10 Q1020 BLU
10:55 am
V
64 °F 6¼ mi+ - 220° 220° 9 kt METAR EHDL 260855Z AUTO 22009KT 140V310 9999 FEW051 18/10 Q1020 BLU
10:25 am
M
61 °F 6¼ mi+ 2.600 ft 260° 260° 9 kt METAR EHDL 260825Z AUTO 26009KT 200V360 9999 BKN026 BKN030 OVC035 16/10 Q1019 BLU
9:55 am
V
61 °F 6¼ mi+ 3.100 ft 240° 240° 9 kt METAR EHDL 260755Z AUTO 24009KT 230V020 9999 FEW028 BKN031 BKN039 16/11 Q1019 BLU
9:25 am
V
61 °F 6¼ mi+ 3.900 ft 250° 250° 9 kt METAR EHDL 260725Z AUTO 25009KT 190V340 9999 FEW022 OVC039 16/11 Q1019 BLU
8:55 am
V
59 °F 6¼ mi+ 4.100 ft 250° 250° 8 kt METAR EHDL 260655Z AUTO 25008KT 190V310 9999 FEW013 OVC041 15/11 Q1019 BLU
8:25 am
V
59 °F 6¼ mi+ 3.800 ft 250° 250° 8 kt METAR EHDL 260625Z AUTO 25008KT 170V300 9999 SCT010 SCT014 BKN038 15/12 Q1018 GRN
7:55 am
V
57 °F 6¼ mi+ 6.400 ft 240° 240° 8 kt METAR EHDL 260555Z AUTO 24008KT 140V300 9999 FEW012 OVC064 14/12 Q1018 BLU
7:25 am
V
57 °F 6¼ mi+ 6.400 ft 240° 240° 8 kt METAR EHDL 260525Z AUTO 24008KT 190V300 9999 FEW043 OVC064 14/12 Q1018 BLU
6:55 am
V
57 °F 6¼ mi+ 3.800 ft 240° 240° 7 kt METAR EHDL 260455Z AUTO 24007KT 180V310 9999 FEW008 BKN038 OVC042 14/12 Q1018 BLU
6:25 am
V
55 °F 6¼ mi+ 7.000 ft 240° 240° 8 kt METAR EHDL 260425Z AUTO 24008KT 190V290 9999 FEW010 OVC070 13/12 Q1017 BLU
5:55 am
M
57 °F 6¼ mi+ 1.400 ft 240° 240° 9 kt METAR EHDL 260355Z AUTO 24009KT 180V300 9999 FEW009 SCT010 BKN014 14/12 Q1017 GRN
5:25 am
M
57 °F 6¼ mi+ 1.400 ft 240° 240° 9 kt METAR EHDL 260325Z AUTO 24009KT 170V280 9999 FEW010 SCT012 BKN014 14/12 Q1017 GRN
4:55 am
V
57 °F 6¼ mi+ 7.000 ft 240° 240° 9 kt METAR EHDL 260255Z AUTO 24009KT 170V280 9999 FEW013 SCT016 OVC070 14/12 Q1017 WHT
4:25 am
M
57 °F 6¼ mi+ 1.600 ft 230° 230° 9 kt METAR EHDL 260225Z AUTO 23009KT 180V310 9999 FEW011 SCT013 BKN016 14/12 Q1017 GRN
3:55 am
M
57 °F 6¼ mi+ 1.300 ft 230° 230° 9 kt METAR EHDL 260155Z AUTO 23009KT 150V270 9999 SCT010 BKN013 OVC016 14/12 Q1016 GRN
3:25 am
I
57 °F 6¼ mi+ 900 ft 240° 240° 9 kt METAR EHDL 260125Z AUTO 24009KT 170V300 9999 BKN009 BKN010 BKN016 14/12 Q1016 GRN
2:55 am
M
57 °F 6¼ mi+ 1.000 ft 230° 230° 11 kt METAR EHDL 260055Z AUTO 23011KT 170V280 9999 BKN010 BKN013 OVC016 14/12 Q1016 GRN
2:25 am
M
57 °F 6¼ mi+ 1.100 ft 230° 230° 10 kt METAR EHDL 260025Z AUTO 23010KT 160V270 9999 OVC011 14/12 Q1016 GRN
1:55 am
M
57 °F 6¼ mi+ 1.400 ft 230° 230° 11 kt METAR EHDL 252355Z AUTO 23011KT 170V290 9999 BKN014 OVC016 14/12 Q1016 GRN
1:25 am
M
55 °F 6¼ mi+ 1.500 ft 220° 220° 8 kt METAR EHDL 252325Z AUTO 22008KT 160V270 9999 OVC015 13/12 Q1016 REDZ WHT
12:55 am
M
55 °F 5⅝ mi 1.700 ft 230° 230° 12 kt METAR EHDL 252255Z AUTO 23012KT 160V280 9000 DZ FEW014 OVC017 13/12 Q1016 WHT
12:25 am
M
57 °F 6¼ mi+ 1.600 ft 220° 220° 9 kt METAR EHDL 252225Z AUTO 22009KT 150V280 9999 -RA OVC016 14/11 Q1016 WHT

25 maggio 2022

Tempo Codice Tempo metereologico Temp. Vista Base nuvolosa Vento METAR/SPECI
11:55 pm
M
57 °F 6¼ mi+ 1.800 ft 220° 220° 9 kt METAR EHDL 252155Z AUTO 22009KT 150V280 9999 OVC018 14/11 Q1016 WHT
11:25 pm
M
57 °F 6¼ mi+ 1.800 ft 220° 220° 11 kt METAR EHDL 252125Z AUTO 22011KT 140V270 9999 OVC018 14/10 Q1016 WHT
10:55 pm
M
55 °F 6¼ mi+ 1.600 ft 220° 220° 11 kt METAR EHDL 252055Z AUTO 22011KT 140V300 9999 OVC016 13/11 Q1016 WHT
10:25 pm
M
55 °F 3⅛ mi 1.600 ft 220° 220° 13 kt METAR EHDL 252025Z AUTO 22013KT 170V280 5000 BR BKN016 OVC020 13/10 Q1016 WHT
9:55 pm
M
55 °F 6¼ mi+ 1.900 ft 220° 220° 11 kt METAR EHDL 251955Z AUTO 22011KT 160V270 9999 SCT016 OVC019 13/10 Q1015 WHT
9:25 pm
M
57 °F 3⅛ mi 2.400 ft 230° 230° 16 - 28 kt METAR EHDL 251925Z AUTO 23016G28KT 160V290 5000 HZ FEW021 BKN024 OVC027 14/09 Q1015 WHT
Dati più vecchi

Scarica la nostra applicazione

Facile accesso a tutte le previsioni dell'aviazione sul tuo cellulare e tablet.
Con molte caratteristiche non disponibili sul sito web, come il supporto offline e una lista personale di aeroporti.

Noi e le terze parti seguiamo il tuo comportamento in internet sul nostro sito web con i cookie. Se continui, riteniamo che tu sia d'accordo con la nostra politica sui cookie. Per saperne di più